createdAt,value
2022-11-26T00:01:43.829Z,2.58
2022-11-26T00:03:47.822Z,2.13
2022-11-26T00:05:52.573Z,1.83
2022-11-26T00:07:56.129Z,2.75
2022-11-26T00:09:59.060Z,2.63
2022-11-26T00:12:00.770Z,2.90
2022-11-26T00:14:02.527Z,2.53
2022-11-26T00:16:04.592Z,3.78
2022-11-26T00:18:06.420Z,2.90
2022-11-26T00:20:08.832Z,4.32
2022-11-26T00:22:26.287Z,2.78
2022-11-26T00:24:28.823Z,3.08
2022-11-26T00:26:30.640Z,3.65
2022-11-26T00:28:33.414Z,2.00
2022-11-26T00:30:35.133Z,1.80
2022-11-26T00:32:36.948Z,2.95
2022-11-26T00:34:38.932Z,2.83
2022-11-26T00:36:42.355Z,3.03
2022-11-26T00:38:45.697Z,2.40
2022-11-26T00:40:47.435Z,2.72
2022-11-26T00:42:49.671Z,2.83
2022-11-26T00:44:51.460Z,2.00
2022-11-26T00:46:53.580Z,3.00
2022-11-26T00:48:55.387Z,2.72
2022-11-26T00:50:57.099Z,2.42
2022-11-26T00:52:58.850Z,2.47
2022-11-26T00:55:04.120Z,2.22
2022-11-26T00:57:05.839Z,2.50
2022-11-26T00:59:09.424Z,2.15
2022-11-26T01:01:13.541Z,3.00
2022-11-26T01:03:15.430Z,3.03
2022-11-26T01:05:17.763Z,2.20
2022-11-26T01:07:19.482Z,2.88
2022-11-26T01:09:21.927Z,3.25
2022-11-26T01:11:24.152Z,3.10
2022-11-26T01:13:26.663Z,3.10
2022-11-26T01:15:28.656Z,2.65
2022-11-26T01:17:31.134Z,3.25
2022-11-26T01:19:32.857Z,3.80
2022-11-26T01:21:34.647Z,2.80
2022-11-26T01:23:39.331Z,2.03
2022-11-26T01:25:41.971Z,1.63
2022-11-26T01:27:43.786Z,3.20
2022-11-26T01:29:45.507Z,3.35
2022-11-26T01:31:47.462Z,2.80
2022-11-26T01:33:49.731Z,2.50
2022-11-26T01:35:52.474Z,4.75
2022-11-26T01:37:54.811Z,4.07
2022-11-26T01:39:56.544Z,4.15
2022-11-26T01:42:39.570Z,4.50
2022-11-26T01:44:41.551Z,3.33
2022-11-26T01:46:43.401Z,5.13
2022-11-26T01:48:46.092Z,5.10
2022-11-26T01:50:53.315Z,4.63
2022-11-26T01:53:07.027Z,4.25
2022-11-26T01:55:15.322Z,4.63
2022-11-26T01:57:20.538Z,4.72
2022-11-26T01:59:30.435Z,4.82
2022-11-26T02:01:33.159Z,4.65
2022-11-26T02:03:47.917Z,3.47
2022-11-26T02:05:57.985Z,4.65
2022-11-26T02:08:00.022Z,4.32
2022-11-26T02:10:02.006Z,4.05
2022-11-26T02:12:04.007Z,3.72
2022-11-26T02:14:17.482Z,5.00
2022-11-26T02:16:40.884Z,4.72
2022-11-26T02:18:48.570Z,3.78
2022-11-26T02:20:50.349Z,4.50
2022-11-26T02:23:13.028Z,4.32
2022-11-26T02:25:14.726Z,3.72
2022-11-26T02:27:48.561Z,4.88
2022-11-26T02:30:09.457Z,3.53
2022-11-26T02:32:18.444Z,3.75
2022-11-26T02:34:45.530Z,4.13
2022-11-26T02:36:52.853Z,3.58
2022-11-26T02:38:54.615Z,4.13
2022-11-26T02:40:56.646Z,3.05
2022-11-26T02:42:58.344Z,3.63
2022-11-26T02:45:08.993Z,3.17
2022-11-26T02:47:15.339Z,3.15
2022-11-26T02:49:21.163Z,3.63
2022-11-26T02:51:26.645Z,3.53
2022-11-26T02:53:32.430Z,3.85
2022-11-26T02:55:38.336Z,3.17
2022-11-26T02:57:50.211Z,2.58
2022-11-26T02:59:52.159Z,3.80
2022-11-26T03:02:16.584Z,3.38
2022-11-26T03:04:25.503Z,2.63
2022-11-26T03:06:30.539Z,3.00
2022-11-26T03:08:33.386Z,2.55
2022-11-26T03:10:35.160Z,3.17
2022-11-26T03:12:36.862Z,3.35
2022-11-26T03:14:38.826Z,3.05
2022-11-26T03:16:41.033Z,3.40
2022-11-26T03:18:42.891Z,3.72
2022-11-26T03:20:44.623Z,2.95
2022-11-26T03:22:46.390Z,3.58
2022-11-26T03:24:48.090Z,3.28
2022-11-26T03:26:49.841Z,3.58
2022-11-26T03:28:51.585Z,3.08
2022-11-26T03:30:53.413Z,3.47
2022-11-26T03:32:55.177Z,3.08
2022-11-26T03:34:56.944Z,2.92
2022-11-26T03:36:58.639Z,2.90
2022-11-26T03:39:00.362Z,3.13
2022-11-26T03:41:03.985Z,2.88
2022-11-26T03:43:06.041Z,3.63
2022-11-26T03:45:08.088Z,3.63
2022-11-26T03:47:09.822Z,3.55
2022-11-26T03:49:11.519Z,4.03
2022-11-26T03:51:13.279Z,3.17
2022-11-26T03:53:15.008Z,4.75
2022-11-26T03:55:16.912Z,4.65
2022-11-26T03:57:18.648Z,4.38
2022-11-26T03:59:20.378Z,4.93
2022-11-26T04:01:22.399Z,4.15
2022-11-26T04:03:24.223Z,5.28
2022-11-26T04:05:25.969Z,4.88
2022-11-26T04:07:27.854Z,5.07
2022-11-26T04:09:29.761Z,4.80
2022-11-26T04:11:31.515Z,6.40
2022-11-26T04:13:33.229Z,5.25
2022-11-26T04:15:35.140Z,4.57
2022-11-26T04:17:37.008Z,3.72
2022-11-26T04:19:38.765Z,3.38
2022-11-26T04:21:40.509Z,4.07
2022-11-26T04:23:42.283Z,3.47
2022-11-26T04:25:44.004Z,3.65
2022-11-26T04:27:45.702Z,4.13
2022-11-26T04:29:47.454Z,4.90
2022-11-26T04:31:49.253Z,5.63
2022-11-26T04:33:51.184Z,6.25
2022-11-26T04:35:53.591Z,4.68
2022-11-26T04:37:55.243Z,5.55
2022-11-26T04:39:56.966Z,5.32
2022-11-26T04:41:58.718Z,4.97
2022-11-26T04:44:00.491Z,4.40
2022-11-26T04:46:02.325Z,5.47
2022-11-26T04:48:04.227Z,4.20
2022-11-26T04:50:06.713Z,3.72
2022-11-26T04:52:08.451Z,3.80
2022-11-26T04:54:13.163Z,3.15
2022-11-26T04:56:15.171Z,3.00
2022-11-26T04:58:20.621Z,3.67
2022-11-26T05:00:22.521Z,3.75
2022-11-26T05:02:24.275Z,4.10
2022-11-26T05:04:29.444Z,4.40
2022-11-26T05:06:31.198Z,5.40
2022-11-26T05:08:32.900Z,4.70
2022-11-26T05:10:34.700Z,3.88
2022-11-26T05:12:36.991Z,4.35
2022-11-26T05:14:38.912Z,2.60
2022-11-26T05:16:40.931Z,3.10
2022-11-26T05:18:43.093Z,2.60
2022-11-26T05:20:44.854Z,3.38
2022-11-26T05:22:46.603Z,3.45
2022-11-26T05:24:48.396Z,3.00
2022-11-26T05:26:55.194Z,3.90
2022-11-26T05:28:58.495Z,2.67
2022-11-26T05:31:04.309Z,3.53
2022-11-26T05:33:06.011Z,3.25
2022-11-26T05:35:08.127Z,3.33
2022-11-26T05:37:09.883Z,3.38
2022-11-26T05:39:11.598Z,3.65
2022-11-26T05:41:13.315Z,3.58
2022-11-26T05:43:15.118Z,3.53
2022-11-26T05:45:16.987Z,3.78
2022-11-26T05:47:18.734Z,2.97
2022-11-26T05:49:20.409Z,3.47
2022-11-26T05:51:22.246Z,3.78
2022-11-26T05:53:23.930Z,3.25
2022-11-26T05:55:25.856Z,3.33
2022-11-26T05:57:27.549Z,3.97
2022-11-26T05:59:29.664Z,3.75
2022-11-26T06:01:31.520Z,4.30
2022-11-26T06:03:33.308Z,3.33
2022-11-26T06:05:35.148Z,3.33
2022-11-26T06:07:40.614Z,3.75
2022-11-26T06:09:45.196Z,5.18
2022-11-26T06:11:49.562Z,4.13
2022-11-26T06:13:51.686Z,4.00
2022-11-26T06:15:53.448Z,4.03
2022-11-26T06:17:55.163Z,3.13
2022-11-26T06:19:56.902Z,4.03
2022-11-26T06:21:58.572Z,4.90
2022-11-26T06:24:00.364Z,4.25
2022-11-26T06:26:02.278Z,4.43
2022-11-26T06:28:04.096Z,4.45
2022-11-26T06:30:07.781Z,4.10
2022-11-26T06:32:09.510Z,4.10
2022-11-26T06:34:11.428Z,4.75
2022-11-26T06:36:13.197Z,4.55
2022-11-26T06:38:15.045Z,4.03
2022-11-26T06:40:19.273Z,4.28
2022-11-26T06:42:20.989Z,4.88
2022-11-26T06:44:22.697Z,3.97
2022-11-26T06:46:24.400Z,4.43
2022-11-26T06:48:26.217Z,4.20
2022-11-26T06:50:27.963Z,4.15
2022-11-26T06:52:29.646Z,4.13
2022-11-26T06:54:31.473Z,4.00
2022-11-26T06:56:35.712Z,4.55
2022-11-26T06:58:37.601Z,4.18
2022-11-26T07:00:39.384Z,4.65
2022-11-26T07:02:42.209Z,4.90
2022-11-26T07:04:44.013Z,5.68
2022-11-26T07:06:46.058Z,5.50
2022-11-26T07:08:48.766Z,6.03
2022-11-26T07:10:50.507Z,4.80
2022-11-26T07:12:52.166Z,5.43
2022-11-26T07:14:53.894Z,5.53
2022-11-26T07:16:55.611Z,5.57
2022-11-26T07:19:02.764Z,5.72
2022-11-26T07:21:09.954Z,5.35
2022-11-26T07:23:11.611Z,4.65
2022-11-26T07:25:13.419Z,5.97
2022-11-26T07:27:15.105Z,5.40
2022-11-26T07:29:16.898Z,6.43
2022-11-26T07:31:21.133Z,7.10
2022-11-26T07:33:22.997Z,5.90
2022-11-26T07:35:24.738Z,6.78
2022-11-26T07:37:26.450Z,6.40
2022-11-26T07:39:28.185Z,6.25
2022-11-26T07:41:30.510Z,5.85
2022-11-26T07:43:41.341Z,5.72
2022-11-26T07:45:43.353Z,7.22
2022-11-26T07:47:45.130Z,7.55
2022-11-26T07:49:47.177Z,7.53
2022-11-26T07:51:49.661Z,8.65
2022-11-26T07:53:52.374Z,6.53
2022-11-26T07:55:54.472Z,6.25
2022-11-26T07:57:56.322Z,7.15
2022-11-26T07:59:58.105Z,7.82
2022-11-26T08:01:59.895Z,7.82
2022-11-26T08:04:05.531Z,8.85
2022-11-26T08:06:11.916Z,8.70
2022-11-26T08:08:13.845Z,7.97
2022-11-26T08:10:15.784Z,7.07
2022-11-26T08:12:20.778Z,6.93
2022-11-26T08:14:23.021Z,7.10
2022-11-26T08:16:27.704Z,6.70
2022-11-26T08:18:30.982Z,6.68
2022-11-26T08:20:40.077Z,7.85
2022-11-26T08:22:41.943Z,7.80
2022-11-26T08:24:43.697Z,9.23
2022-11-26T08:26:45.592Z,8.07
2022-11-26T08:28:47.947Z,6.45
2022-11-26T08:30:50.060Z,8.45
2022-11-26T08:32:52.116Z,8.75
2022-11-26T08:34:53.845Z,8.50
2022-11-26T08:36:56.023Z,9.40
2022-11-26T08:38:59.307Z,8.40
2022-11-26T08:41:02.315Z,8.82
2022-11-26T08:43:04.084Z,9.77
2022-11-26T08:45:06.114Z,8.57
2022-11-26T08:47:08.108Z,9.68
2022-11-26T08:49:12.659Z,7.95
2022-11-26T08:51:14.438Z,8.15
2022-11-26T08:53:16.124Z,6.82
2022-11-26T08:55:23.638Z,7.43
2022-11-26T08:57:25.932Z,7.43
2022-11-26T08:59:27.790Z,6.13
2022-11-26T09:01:32.670Z,7.88
2022-11-26T09:03:34.600Z,6.40
2022-11-26T09:05:36.339Z,6.43
2022-11-26T09:07:38.180Z,6.78
2022-11-26T09:09:39.907Z,6.65
2022-11-26T09:11:49.522Z,8.18
2022-11-26T09:13:51.497Z,8.82
2022-11-26T09:15:53.167Z,8.00
2022-11-26T09:17:54.976Z,7.30
2022-11-26T09:19:57.250Z,7.05
2022-11-26T09:21:59.710Z,7.68
2022-11-26T09:24:02.078Z,9.38
2022-11-26T09:26:03.775Z,7.43
2022-11-26T09:28:06.048Z,6.95
2022-11-26T09:30:08.498Z,6.53
2022-11-26T09:32:30.923Z,6.10
2022-11-26T09:34:32.272Z,6.25
2022-11-26T09:36:33.987Z,5.95
2022-11-26T09:38:36.377Z,6.45
2022-11-26T09:40:57.779Z,6.07
2022-11-26T09:43:06.866Z,6.28
2022-11-26T09:45:12.845Z,6.00
2022-11-26T09:47:18.845Z,6.15
2022-11-26T09:49:20.740Z,5.30
2022-11-26T09:51:22.523Z,6.45
2022-11-26T09:53:26.674Z,6.97
2022-11-26T09:55:32.454Z,6.78
2022-11-26T09:57:41.214Z,6.90
2022-11-26T09:59:45.248Z,6.07
2022-11-26T10:01:47.126Z,7.60
2022-11-26T10:03:49.025Z,8.48
2022-11-26T10:06:17.710Z,7.90
2022-11-26T10:08:43.947Z,6.93
2022-11-26T10:10:51.442Z,7.85
2022-11-26T10:13:20.450Z,7.25
2022-11-26T10:15:28.828Z,6.65
2022-11-26T10:17:46.799Z,7.00
2022-11-26T10:19:53.504Z,7.22
2022-11-26T10:22:00.889Z,6.60
2022-11-26T10:24:10.505Z,7.22
2022-11-26T10:26:27.857Z,5.32
2022-11-26T10:28:51.000Z,7.32
2022-11-26T10:31:10.431Z,7.38
2022-11-26T10:33:15.567Z,7.43
2022-11-26T10:35:27.474Z,6.75
2022-11-26T10:37:29.762Z,7.70
2022-11-26T10:39:31.501Z,7.15
2022-11-26T10:41:37.328Z,9.05
2022-11-26T10:43:39.026Z,8.82
2022-11-26T10:45:43.445Z,7.18
2022-11-26T10:47:45.360Z,7.05
2022-11-26T10:49:47.937Z,7.10
2022-11-26T10:51:51.031Z,7.68
2022-11-26T10:53:59.275Z,7.38
2022-11-26T10:56:02.045Z,7.18
2022-11-26T10:58:13.638Z,8.18
2022-11-26T11:00:27.806Z,7.70
2022-11-26T11:02:41.241Z,6.93
2022-11-26T11:04:45.304Z,7.00
2022-11-26T11:06:47.228Z,7.28
2022-11-26T11:08:51.902Z,8.70
2022-11-26T11:10:56.899Z,7.10
2022-11-26T11:13:02.837Z,7.28
2022-11-26T11:15:23.334Z,6.88
2022-11-26T11:17:35.367Z,7.20
2022-11-26T11:19:37.254Z,6.55
2022-11-26T11:21:43.836Z,8.52
2022-11-26T11:26:22.080Z,6.68
2022-11-26T11:28:26.144Z,7.00
2022-11-26T11:30:34.328Z,7.70
2022-11-26T11:32:40.301Z,6.50
2022-11-26T11:34:43.080Z,7.45
2022-11-26T11:37:14.891Z,6.60
2022-11-26T11:39:35.672Z,7.00
2022-11-26T11:41:43.282Z,6.15
2022-11-26T11:43:45.013Z,6.85
2022-11-26T11:45:53.164Z,6.50
2022-11-26T11:47:58.398Z,6.85
2022-11-26T11:50:21.493Z,6.47
2022-11-26T11:52:42.077Z,6.20
2022-11-26T11:55:00.562Z,7.03
2022-11-26T11:57:12.003Z,5.65
2022-11-26T11:59:26.159Z,5.05
2022-11-26T12:01:58.784Z,5.63
2022-11-26T12:04:12.818Z,4.43
2022-11-26T12:06:36.861Z,4.75
2022-11-26T12:08:41.753Z,4.28
2022-11-26T12:10:50.638Z,4.20
2022-11-26T12:12:56.717Z,4.53
2022-11-26T12:15:08.111Z,3.67
2022-11-26T12:17:16.683Z,3.38
2022-11-26T12:19:33.168Z,4.22
2022-11-26T12:21:47.778Z,4.03
2022-11-26T12:24:03.298Z,4.18
2022-11-26T12:26:07.116Z,4.50
2022-11-26T12:28:18.064Z,3.63
2022-11-26T12:30:23.030Z,4.75
2022-11-26T12:32:43.093Z,3.83
2022-11-26T12:34:46.243Z,4.43
2022-11-26T12:36:54.986Z,5.03
2022-11-26T12:39:00.192Z,4.70
2022-11-26T12:41:19.182Z,3.85
2022-11-26T12:43:27.169Z,5.82
2022-11-26T12:45:43.870Z,4.78
2022-11-26T12:47:58.072Z,4.38
2022-11-26T12:50:05.994Z,4.28
2022-11-26T12:52:29.117Z,5.75
2022-11-26T12:54:43.129Z,5.57
2022-11-26T12:57:08.608Z,4.40
2022-11-26T12:59:22.719Z,4.40
2022-11-26T13:01:24.779Z,3.85
2022-11-26T13:03:32.327Z,5.78
2022-11-26T13:05:52.470Z,5.03
2022-11-26T13:08:17.612Z,5.65
2022-11-26T13:10:34.753Z,5.63
2022-11-26T13:12:59.697Z,5.82
2022-11-26T13:15:15.884Z,5.80
2022-11-26T13:17:19.337Z,7.20
2022-11-26T13:19:33.683Z,6.63
2022-11-26T13:21:50.554Z,6.55
2022-11-26T13:24:19.875Z,6.25
2022-11-26T13:26:39.663Z,7.00
2022-11-26T13:28:50.270Z,7.38
2022-11-26T13:31:24.404Z,6.88
2022-11-26T13:33:43.103Z,6.80
2022-11-26T13:36:13.583Z,7.00
2022-11-26T13:38:37.303Z,6.75
2022-11-26T13:40:59.086Z,8.07
2022-11-26T13:43:42.997Z,6.50
2022-11-26T13:45:53.802Z,8.30
2022-11-26T13:48:00.368Z,8.27
2022-11-26T13:50:04.976Z,6.50
2022-11-26T13:52:09.996Z,5.80
2022-11-26T13:54:18.713Z,5.40
2022-11-26T13:56:22.759Z,7.78
2022-11-26T13:58:41.361Z,7.10
2022-11-26T14:00:43.805Z,5.80
2022-11-26T14:02:47.420Z,5.72
2022-11-26T14:04:49.290Z,7.13
2022-11-26T14:07:06.438Z,5.72
2022-11-26T14:10:03.222Z,6.28
2022-11-26T14:12:05.288Z,6.25
2022-11-26T14:14:24.955Z,5.85
2022-11-26T14:17:01.939Z,6.63
2022-11-26T14:19:03.860Z,6.57
2022-11-26T14:21:12.929Z,6.63
2022-11-26T14:23:46.695Z,7.00
2022-11-26T14:25:48.730Z,8.55
2022-11-26T14:27:53.867Z,6.95
2022-11-26T14:30:16.789Z,6.78
2022-11-26T14:32:36.971Z,7.20
2022-11-26T14:34:49.819Z,6.57
2022-11-26T14:36:59.958Z,6.97
2022-11-26T14:39:15.659Z,6.38
2022-11-26T14:41:17.524Z,8.80
2022-11-26T14:43:20.186Z,8.95
2022-11-26T14:45:24.442Z,8.30
2022-11-26T14:47:26.306Z,8.93
2022-11-26T14:49:40.696Z,7.28
2022-11-26T14:51:45.602Z,7.82
2022-11-26T14:53:48.322Z,6.93
2022-11-26T14:55:50.377Z,7.85
2022-11-26T14:57:57.056Z,9.15
2022-11-26T15:00:22.613Z,6.70
2022-11-26T15:02:26.648Z,7.47
2022-11-26T15:04:30.847Z,7.40
2022-11-26T15:06:38.503Z,6.75
2022-11-26T15:08:40.362Z,7.30
2022-11-26T15:11:03.539Z,8.02
2022-11-26T15:13:12.107Z,6.85
2022-11-26T15:15:17.431Z,7.53
2022-11-26T15:17:21.474Z,7.57
2022-11-26T15:19:23.671Z,5.70
2022-11-26T15:21:26.919Z,6.47
2022-11-26T15:23:32.426Z,5.78
2022-11-26T15:25:35.765Z,7.00
2022-11-26T15:27:54.323Z,5.97
2022-11-26T15:29:56.140Z,5.95
2022-11-26T15:31:57.895Z,5.47
2022-11-26T15:33:59.643Z,6.07
2022-11-26T15:36:02.654Z,5.88
2022-11-26T15:38:20.673Z,6.35
2022-11-26T15:40:24.173Z,6.25
2022-11-26T15:42:30.656Z,6.07
2022-11-26T15:44:37.652Z,5.28
2022-11-26T15:46:48.640Z,5.47
2022-11-26T15:48:53.894Z,4.93
2022-11-26T15:50:57.840Z,5.78
2022-11-26T15:53:15.507Z,5.93
2022-11-26T15:55:22.602Z,5.38
2022-11-26T15:57:26.118Z,5.78
2022-11-26T15:59:29.092Z,5.50
2022-11-26T16:01:33.647Z,6.18
2022-11-26T16:03:38.488Z,6.63
2022-11-26T16:05:40.404Z,6.25
2022-11-26T16:07:56.780Z,5.50
2022-11-26T16:10:17.088Z,4.28
2022-11-26T16:13:03.537Z,5.55
2022-11-26T16:15:19.728Z,6.30
2022-11-26T16:17:21.756Z,6.00
2022-11-26T16:19:27.652Z,6.22
2022-11-26T16:21:34.078Z,4.90
2022-11-26T16:23:35.978Z,8.23
2022-11-26T16:25:38.250Z,7.72
2022-11-26T16:27:39.956Z,9.13
2022-11-26T16:29:41.732Z,7.72
2022-11-26T16:31:43.501Z,8.32
2022-11-26T16:33:45.450Z,6.35
2022-11-26T16:35:47.280Z,7.43
2022-11-26T16:37:49.081Z,7.25
2022-11-26T16:39:52.973Z,5.40
2022-11-26T16:41:54.783Z,5.43
2022-11-26T16:46:20.860Z,6.65
2022-11-26T16:48:26.010Z,5.43
2022-11-26T16:50:28.068Z,7.13
2022-11-26T16:52:29.878Z,6.30
2022-11-26T16:54:31.801Z,5.32
2022-11-26T16:56:37.585Z,5.85
2022-11-26T16:58:39.341Z,4.13
2022-11-26T17:00:41.413Z,4.57
2022-11-26T17:02:43.222Z,4.47
2022-11-26T17:04:45.478Z,5.10
2022-11-26T17:06:47.294Z,5.65
2022-11-26T17:08:50.156Z,4.57
2022-11-26T17:10:52.480Z,5.13
2022-11-26T17:12:54.539Z,5.07
2022-11-26T17:14:56.358Z,4.97
2022-11-26T17:16:58.125Z,5.43
2022-11-26T17:18:59.963Z,5.63
2022-11-26T17:21:01.748Z,4.60
2022-11-26T17:23:03.624Z,6.45
2022-11-26T17:25:05.947Z,5.25
2022-11-26T17:27:16.669Z,5.72
2022-11-26T17:29:18.554Z,4.97
2022-11-26T17:31:20.443Z,13.05
2022-11-26T17:33:22.607Z,11.20
2022-11-26T17:35:24.383Z,8.02
2022-11-26T17:37:28.338Z,8.27
2022-11-26T17:39:30.053Z,7.50
2022-11-26T17:41:31.790Z,6.88
2022-11-26T17:43:33.560Z,6.28
2022-11-26T17:45:35.484Z,4.28
2022-11-26T17:47:37.234Z,4.70
2022-11-26T17:49:39.212Z,4.13
2022-11-26T17:51:42.769Z,4.72
2022-11-26T17:53:45.079Z,5.32
2022-11-26T17:55:48.387Z,4.53
2022-11-26T17:57:50.483Z,4.82
2022-11-26T17:59:52.228Z,4.38
2022-11-26T18:01:54.057Z,4.95
2022-11-26T18:03:55.864Z,4.30
2022-11-26T18:05:57.672Z,4.35
2022-11-26T18:07:59.512Z,4.95
2022-11-26T18:10:01.395Z,5.40
2022-11-26T18:12:04.481Z,4.60
2022-11-26T18:14:06.270Z,4.60
2022-11-26T18:16:08.071Z,5.47
2022-11-26T18:18:09.816Z,6.30
2022-11-26T18:20:11.766Z,6.13
2022-11-26T18:22:31.197Z,3.67
2022-11-26T18:24:33.924Z,5.05
2022-11-26T18:26:36.274Z,4.72
2022-11-26T18:28:37.970Z,4.65
2022-11-26T18:30:39.737Z,5.60
2022-11-26T18:32:41.488Z,5.40
2022-11-26T18:34:43.348Z,5.40
2022-11-26T18:36:49.349Z,5.10
2022-11-26T18:38:54.404Z,4.45
2022-11-26T18:41:03.761Z,5.00
2022-11-26T18:43:05.902Z,5.43
2022-11-26T18:45:10.361Z,4.95
2022-11-26T18:47:12.742Z,5.15
2022-11-26T18:49:15.305Z,5.32
2022-11-26T18:51:17.467Z,5.38
2022-11-26T18:53:19.221Z,5.28
2022-11-26T18:55:20.938Z,4.60
2022-11-26T18:57:22.634Z,13.90
2022-11-26T18:59:24.331Z,7.45
2022-11-26T19:01:32.027Z,7.93
2022-11-26T19:03:38.739Z,6.68
2022-11-26T19:05:50.629Z,5.95
2022-11-26T19:07:52.448Z,5.20
2022-11-26T19:09:54.252Z,5.85
2022-11-26T19:11:56.129Z,6.13
2022-11-26T19:13:58.270Z,4.95
2022-11-26T19:16:00.037Z,4.95
2022-11-26T19:18:01.737Z,4.60
2022-11-26T19:20:03.771Z,5.10
2022-11-26T19:22:05.507Z,5.95
2022-11-26T19:24:08.426Z,5.25
2022-11-26T19:26:10.343Z,5.78
2022-11-26T19:28:12.426Z,7.53
2022-11-26T19:30:15.706Z,5.57
2022-11-26T19:32:17.598Z,8.10
2022-11-26T19:34:19.360Z,6.88
2022-11-26T19:36:22.220Z,7.07
2022-11-26T19:38:24.960Z,5.90
2022-11-26T19:40:26.878Z,6.25
2022-11-26T19:42:30.293Z,5.75
2022-11-26T19:44:32.044Z,3.95
2022-11-26T19:46:36.783Z,4.47
2022-11-26T19:48:41.038Z,4.88
2022-11-26T19:50:43.252Z,4.80
2022-11-26T19:52:47.917Z,3.58
2022-11-26T19:54:50.007Z,4.15
2022-11-26T19:56:51.834Z,4.25
2022-11-26T19:58:54.312Z,4.47
2022-11-26T20:00:56.184Z,3.65
2022-11-26T20:02:58.014Z,4.40
2022-11-26T20:04:59.807Z,4.72
2022-11-26T20:07:01.541Z,3.95
2022-11-26T20:09:04.708Z,4.55
2022-11-26T20:11:07.688Z,4.45
2022-11-26T20:13:10.346Z,4.68
2022-11-26T20:15:12.098Z,4.60
2022-11-26T20:17:13.972Z,5.15
2022-11-26T20:19:15.738Z,5.07
2022-11-26T20:21:20.419Z,3.13
2022-11-26T20:23:22.125Z,4.68
2022-11-26T20:25:23.864Z,3.33
2022-11-26T20:27:25.592Z,4.60
2022-11-26T20:29:27.324Z,4.53
2022-11-26T20:31:29.133Z,4.38
2022-11-26T20:33:30.958Z,2.95
2022-11-26T20:35:32.684Z,4.40
2022-11-26T20:37:35.205Z,3.40
2022-11-26T20:39:36.990Z,4.88
2022-11-26T20:41:38.848Z,3.03
2022-11-26T20:43:40.546Z,4.13
2022-11-26T20:45:42.344Z,3.80
2022-11-26T20:47:44.137Z,4.18
2022-11-26T20:49:46.126Z,4.45
2022-11-26T20:51:48.053Z,4.13
2022-11-26T20:53:51.397Z,4.60
2022-11-26T20:55:54.478Z,4.22
2022-11-26T20:57:56.198Z,4.13
2022-11-26T20:59:57.925Z,3.72
2022-11-26T21:01:59.632Z,3.38
2022-11-26T21:04:01.340Z,2.90
2022-11-26T21:06:03.618Z,3.00
2022-11-26T21:08:05.395Z,3.55
2022-11-26T21:10:08.537Z,2.88
2022-11-26T21:12:10.218Z,3.40
2022-11-26T21:14:14.937Z,3.13
2022-11-26T21:16:17.429Z,3.05
2022-11-26T21:18:19.295Z,2.85
2022-11-26T21:20:21.044Z,3.50
2022-11-26T21:22:22.790Z,4.10
2022-11-26T21:24:24.668Z,3.63
2022-11-26T21:26:26.840Z,3.45
2022-11-26T21:28:28.533Z,4.30
2022-11-26T21:30:30.386Z,4.40
2022-11-26T21:32:32.153Z,3.20
2022-11-26T21:34:33.961Z,3.35
2022-11-26T21:36:37.068Z,3.50
2022-11-26T21:38:39.003Z,2.90
2022-11-26T21:40:40.678Z,3.85
2022-11-26T21:42:42.424Z,3.17
2022-11-26T21:44:44.129Z,3.25
2022-11-26T21:46:45.876Z,2.25
2022-11-26T21:48:47.856Z,2.83
2022-11-26T21:50:49.664Z,3.38
2022-11-26T21:52:51.389Z,3.63
2022-11-26T21:54:53.144Z,3.15
2022-11-26T21:56:54.897Z,3.25
2022-11-26T21:58:59.414Z,3.53
2022-11-26T22:01:01.956Z,3.45
2022-11-26T22:03:10.018Z,2.72
2022-11-26T22:05:13.102Z,3.78
2022-11-26T22:07:15.102Z,3.33
2022-11-26T22:09:17.546Z,3.47
2022-11-26T22:11:21.795Z,2.75
2022-11-26T22:13:23.532Z,3.15
2022-11-26T22:15:25.458Z,4.22
2022-11-26T22:17:27.188Z,4.05
2022-11-26T22:19:28.988Z,3.80
2022-11-26T22:21:41.156Z,4.75
2022-11-26T22:23:42.949Z,3.72
2022-11-26T22:25:45.527Z,4.32
2022-11-26T22:27:47.265Z,5.18
2022-11-26T22:29:49.006Z,3.63
2022-11-26T22:31:53.734Z,3.33
2022-11-26T22:34:15.724Z,4.18
2022-11-26T22:36:17.423Z,3.60
2022-11-26T22:38:19.166Z,3.63
2022-11-26T22:40:20.860Z,3.22
2022-11-26T22:42:22.560Z,4.75
2022-11-26T22:44:24.326Z,4.38
2022-11-26T22:46:26.250Z,3.83
2022-11-26T22:48:28.092Z,4.30
2022-11-26T22:50:29.858Z,4.03
2022-11-26T22:52:31.589Z,4.03
2022-11-26T22:54:33.296Z,4.85
2022-11-26T22:56:38.035Z,3.90
2022-11-26T22:58:39.783Z,3.63
2022-11-26T23:00:54.143Z,4.65
2022-11-26T23:02:55.923Z,3.40
2022-11-26T23:04:57.793Z,3.78
2022-11-26T23:06:59.549Z,4.00
2022-11-26T23:09:03.367Z,4.22
2022-11-26T23:11:10.319Z,4.05
2022-11-26T23:13:13.150Z,2.75
2022-11-26T23:15:14.870Z,4.82
2022-11-26T23:17:16.612Z,4.03
2022-11-26T23:19:18.427Z,3.70
2022-11-26T23:21:25.399Z,3.83
2022-11-26T23:23:27.057Z,3.13
2022-11-26T23:25:28.931Z,3.78
2022-11-26T23:27:30.626Z,3.50
2022-11-26T23:29:32.378Z,4.55
2022-11-26T23:31:36.776Z,4.05
2022-11-26T23:33:38.591Z,4.15
2022-11-26T23:35:43.309Z,4.05
2022-11-26T23:37:45.001Z,4.35
2022-11-26T23:39:46.711Z,3.40
2022-11-26T23:41:48.431Z,3.65
2022-11-26T23:43:50.203Z,3.70
2022-11-26T23:46:03.457Z,3.75
2022-11-26T23:48:05.469Z,4.13
2022-11-26T23:50:08.178Z,4.60
2022-11-26T23:52:09.950Z,3.47
2022-11-26T23:54:11.632Z,4.10
2022-11-26T23:56:27.382Z,4.25
2022-11-26T23:58:29.173Z,4.18
